Time;durP1;ratioP1;P1;durP2;ratioP2;P2;SDS_P1;SDS_P2;PMS_P1;PMS_P2;Temp;Humidity;BMP_temperature;BMP_pressure;BME280_temperature;BME280_humidity;BME280_pressure;Samples;Min_cycle;Max_cycle;Signal;HPM_P1;HPM_P2
2022/02/09 00:01:20;;;;;;;9.68;3.40;;;;;;;4.77;100.00;97159.47;5073911;28;24488;-76
2022/02/09 00:03:54;;;;;;;7.63;3.03;;;;;;;4.82;100.00;97157.66;5073622;28;24525;-76
2022/02/09 00:06:39;;;;;;;5.07;2.77;;;;;;;4.81;100.00;97150.84;5073377;28;24926;-77
2022/02/09 00:09:06;;;;;;;5.93;3.40;;;;;;;4.80;100.00;97154.31;5073788;28;24423;-77
2022/02/09 00:11:40;;;;;;;5.13;2.92;;;;;;;4.75;100.00;97154.38;5073553;28;24418;-76
2022/02/09 00:14:16;;;;;;;4.95;2.63;;;;;;;4.76;100.00;97158.63;5073699;28;24521;-76
2022/02/09 00:17:05;;;;;;;4.50;2.85;;;;;;;4.75;100.00;97162.09;5073447;28;24461;-76
2022/02/09 00:19:38;;;;;;;4.88;2.88;;;;;;;4.76;100.00;97160.38;5073145;28;24437;-77
2022/02/09 00:22:18;;;;;;;4.15;2.67;;;;;;;4.64;100.00;97171.69;5073423;28;24435;-76
2022/02/09 00:25:09;;;;;;;4.18;2.45;;;;;;;4.62;100.00;97160.59;5073488;28;24422;-77
2022/02/09 00:28:02;;;;;;;3.70;2.30;;;;;;;4.65;100.00;97168.25;5073098;28;24509;-76
2022/02/09 00:30:56;;;;;;;6.00;2.75;;;;;;;4.75;100.00;97166.38;5073464;28;24518;-76
2022/02/09 00:33:52;;;;;;;5.50;2.60;;;;;;;4.60;100.00;97176.03;5073117;28;24437;-77
2022/02/09 00:39:18;;;;;;;2.78;2.00;;;;;;;4.64;100.00;97179.41;5072863;28;24453;-76
2022/02/09 00:42:02;;;;;;;6.30;2.88;;;;;;;4.66;100.00;97181.91;5073138;28;24429;-76
2022/02/09 00:44:58;;;;;;;4.68;2.47;;;;;;;4.64;100.00;97188.81;5073242;28;24773;-76
2022/02/09 00:59:17;;;;;;;4.43;2.67;;;;;;;4.58;100.00;97171.78;5072518;28;24389;-76
2022/02/09 01:41:01;;;;;;;6.63;2.42;;;;;;;4.59;100.00;97134.97;5071744;28;24453;-76
2022/02/09 01:56:53;;;;;;;4.70;2.60;;;;;;;4.55;100.00;97129.06;5071024;28;24426;-76
2022/02/09 01:59:20;;;;;;;4.03;2.40;;;;;;;4.52;100.00;97131.66;5071709;28;24422;-76
2022/02/09 02:01:46;;;;;;;4.38;2.45;;;;;;;4.57;100.00;97122.19;5071473;28;24430;-76
2022/02/09 02:04:13;;;;;;;4.22;2.25;;;;;;;4.56;100.00;97115.38;5071253;28;24425;-76
2022/02/09 02:06:44;;;;;;;3.90;2.42;;;;;;;4.47;100.00;97105.25;5070892;28;24500;-76
2022/02/09 02:09:13;;;;;;;3.67;2.33;;;;;;;4.48;100.00;97106.09;5071232;28;24971;-76
2022/02/09 02:11:45;;;;;;;5.38;2.42;;;;;;;4.52;100.00;97111.16;5071010;28;24431;-76
2022/02/09 02:14:21;;;;;;;4.50;2.92;;;;;;;4.45;100.00;97111.28;5071398;28;24418;-76
2022/02/09 02:16:52;;;;;;;5.10;2.88;;;;;;;4.44;100.00;97110.44;5070448;28;24429;-76
2022/02/09 02:19:30;;;;;;;5.10;3.20;;;;;;;4.41;100.00;97113.06;5071044;28;24422;-77
2022/02/09 02:22:07;;;;;;;5.78;3.00;;;;;;;4.35;100.00;97108.03;5071303;28;24516;-76
2022/02/09 02:24:59;;;;;;;6.32;3.15;;;;;;;4.34;100.00;97107.19;5071284;28;24441;-77
2022/02/09 02:27:54;;;;;;;6.70;2.72;;;;;;;4.32;100.00;97106.38;5070837;28;24442;-77
2022/02/09 02:30:48;;;;;;;5.80;2.58;;;;;;;4.28;100.00;97091.06;5071256;28;24525;-77
2022/02/09 02:33:29;;;;;;;3.72;2.60;;;;;;;4.32;100.00;97096.09;5070931;28;24999;-77
2022/02/09 02:36:20;;;;;;;5.32;2.72;;;;;;;4.28;100.00;97091.91;5070820;28;24414;-76
2022/02/09 02:39:17;;;;;;;5.93;2.90;;;;;;;4.39;100.00;97089.16;5070890;28;24517;-77
2022/02/09 02:42:50;;;;;;;8.15;3.17;;;;;;;4.38;100.00;97086.63;5071090;28;24414;-76
2022/02/09 02:45:52;;;;;;;5.10;2.65;;;;;;;4.31;100.00;97093.59;5070517;28;24437;-77
2022/02/09 03:10:06;;;;;;;3.90;2.28;;;;;;;4.47;100.00;97074.47;5039255;28;24439;-77
2022/02/09 03:12:39;;;;;;;6.50;2.78;;;;;;;4.52;100.00;97061.56;5070667;28;24454;-77
2022/02/09 03:15:22;;;;;;;6.18;2.70;;;;;;;4.52;100.00;97064.97;5070322;28;24422;-77
2022/02/09 03:18:02;;;;;;;4.70;2.47;;;;;;;4.52;100.00;97051.28;5070488;28;24425;-77
2022/02/09 03:20:36;;;;;;;6.93;2.87;;;;;;;4.53;100.00;97056.41;5070677;28;24529;-77
2022/02/09 03:23:15;;;;;;;4.28;2.67;;;;;;;4.49;100.00;97048.81;5070513;28;24430;-76
2022/02/09 03:26:04;;;;;;;6.32;2.83;;;;;;;4.43;100.00;97052.31;5070589;28;24619;-76
2022/02/09 03:42:10;;;;;;;6.93;3.45;;;;;;;4.40;100.00;97054.09;5074277;28;24436;-76
2022/02/09 03:42:38;;;;;;;5.67;2.77;;;;;;;4.27;100.00;97067.16;5074096;28;25018;-77
2022/02/09 03:45:41;;;;;;;6.72;3.50;;;;;;;4.25;100.00;97068.03;5073880;28;25035;-77
2022/02/09 03:48:23;;;;;;;3.40;2.28;;;;;;;4.34;100.00;97049.94;5073422;28;24447;-77
2022/02/09 03:51:13;;;;;;;7.32;2.90;;;;;;;4.28;100.00;97060.28;5073856;28;24847;-76
2022/02/09 03:56:29;;;;;;;5.13;2.63;;;;;;;4.28;100.00;97058.56;5073206;28;24653;-76
2022/02/09 03:58:56;;;;;;;5.22;2.55;;;;;;;4.32;100.00;97054.22;5073607;28;24509;-76
2022/02/09 04:01:28;;;;;;;6.65;2.85;;;;;;;4.29;100.00;97047.44;5073568;28;24964;-77
2022/02/09 04:03:55;;;;;;;4.95;2.70;;;;;;;4.20;100.00;97059.59;5072424;28;24447;-76
2022/02/09 04:06:21;;;;;;;6.40;3.00;;;;;;;4.16;100.00;97055.38;5063442;28;24427;-76
2022/02/09 04:08:53;;;;;;;5.78;2.92;;;;;;;4.18;100.00;97046.78;5064682;28;24446;-77
2022/02/09 04:11:25;;;;;;;4.93;2.85;;;;;;;4.25;100.00;97038.09;5064914;28;24960;-77
2022/02/09 04:13:59;;;;;;;9.32;3.15;;;;;;;4.17;100.00;97050.22;5058798;28;24530;-75
2022/02/09 04:16:42;;;;;;;6.60;2.85;;;;;;;4.07;100.00;97049.50;5061359;28;24947;-74
2022/02/09 04:19:19;;;;;;;5.28;2.85;;;;;;;4.06;100.00;97050.38;5052455;28;24489;-76
2022/02/09 04:38:37;;;;;;;4.97;2.92;;;;;;;4.17;100.00;97049.38;5009185;28;24442;-75
2022/02/09 04:41:27;;;;;;;5.15;2.72;;;;;;;4.15;100.00;97044.25;5044270;28;24484;-75
2022/02/09 04:44:07;;;;;;;6.97;3.08;;;;;;;4.11;100.00;97046.03;5061066;28;24497;-75
2022/02/09 04:47:01;;;;;;;6.63;3.05;;;;;;;4.17;100.00;97044.25;5059712;28;24435;-75
2022/02/09 04:52:25;;;;;;;4.80;2.70;;;;;;;4.25;100.00;97030.41;5059172;28;24457;-75
2022/02/09 04:55:03;;;;;;;7.20;3.00;;;;;;;4.28;100.00;97029.50;5051855;28;24435;-75
2022/02/09 04:57:35;;;;;;;6.07;2.80;;;;;;;4.27;100.00;97040.66;5051838;28;24840;-75
2022/02/09 05:00:19;;;;;;;6.03;3.10;;;;;;;4.27;100.00;97049.19;5052418;28;24798;-75
2022/02/09 05:03:24;;;;;;;5.57;3.00;;;;;;;4.32;100.00;97036.28;5052389;28;24434;-74
2022/02/09 05:22:35;;;;;;;10.30;4.20;;;;;;;4.26;100.00;97026.97;5052131;28;24817;-74
2022/02/09 05:25:15;;;;;;;6.20;3.70;;;;;;;4.23;100.00;97037.28;5065867;28;24864;-74
2022/02/09 05:27:52;;;;;;;7.95;3.38;;;;;;;4.25;100.00;97032.13;5071759;28;24852;-74
2022/02/09 05:30:18;;;;;;;5.88;3.55;;;;;;;4.31;100.00;97032.03;5072007;28;24960;-74
2022/02/09 05:32:47;;;;;;;24.23;13.38;;;;;;;4.23;100.00;97042.44;5071864;28;24415;-74
2022/02/09 05:35:14;;;;;;;21.05;11.07;;;;;;;4.28;100.00;97034.66;5071797;28;24429;-74
2022/02/09 05:37:42;;;;;;;11.00;7.65;;;;;;;4.28;100.00;97040.63;5071797;28;24480;-74
2022/02/09 05:40:09;;;;;;;5.67;3.70;;;;;;;4.25;100.00;97037.25;5071695;28;24437;-74
2022/02/09 05:42:36;;;;;;;6.60;3.15;;;;;;;4.28;100.00;97038.06;5071454;28;25033;-74
2022/02/09 05:45:07;;;;;;;5.80;3.40;;;;;;;4.21;100.00;97031.34;5071767;28;24415;-74
2022/02/09 05:50:28;;;;;;;5.65;3.20;;;;;;;4.16;100.00;97040.00;5070899;28;24467;-73
2022/02/09 05:53:07;;;;;;;7.65;3.53;;;;;;;4.11;100.00;97046.03;5071397;28;24998;-74
2022/02/09 05:55:45;;;;;;;7.85;2.97;;;;;;;4.12;100.00;97044.31;5071420;28;24438;-74
2022/02/09 05:58:21;;;;;;;6.50;3.35;;;;;;;4.04;100.00;97053.84;5071370;28;24419;-74
2022/02/09 06:00:48;;;;;;;4.53;3.08;;;;;;;4.11;100.00;97043.47;5071405;28;24508;-74
2022/02/09 06:03:15;;;;;;;6.18;3.08;;;;;;;4.09;100.00;97047.78;5071282;28;24748;-74
2022/02/09 06:05:42;;;;;;;6.80;3.40;;;;;;;4.00;100.00;97049.63;5071075;28;24480;-76
2022/02/09 06:08:10;;;;;;;6.57;3.22;;;;;;;3.95;100.00;97052.28;5070863;28;24457;-75
2022/02/09 06:10:37;;;;;;;5.70;3.17;;;;;;;3.88;100.00;97051.53;5071090;28;24453;-75
2022/02/09 06:13:18;;;;;;;8.50;3.28;;;;;;;3.99;100.00;97051.34;5070759;28;25040;-75
2022/02/09 06:16:06;;;;;;;7.13;3.28;;;;;;;3.93;100.00;97046.34;5070830;28;24421;-76
2022/02/09 06:21:19;;;;;;;9.07;3.80;;;;;;;3.78;100.00;97052.56;5070547;28;24998;-76
2022/02/09 06:23:48;;;;;;;4.60;3.65;;;;;;;3.67;100.00;97053.56;5070850;28;24437;-75
2022/02/09 06:26:15;;;;;;;6.82;3.60;;;;;;;3.60;100.00;97047.72;5070634;28;24973;-75
2022/02/09 06:28:41;;;;;;;4.78;3.35;;;;;;;3.53;100.00;97046.97;5066312;28;24453;-76
2022/02/09 06:31:08;;;;;;;6.05;4.10;;;;;;;3.53;100.00;97046.97;5062636;28;24461;-76
2022/02/09 06:33:34;;;;;;;10.25;4.22;;;;;;;3.43;100.00;97049.66;5050738;28;24430;-75
2022/02/09 06:36:04;;;;;;;6.88;4.13;;;;;;;3.40;100.00;97048.84;5050809;28;24423;-76
2022/02/09 06:38:37;;;;;;;7.15;4.75;;;;;;;3.36;100.00;97048.91;5050527;28;24423;-75
2022/02/09 06:41:06;;;;;;;7.65;5.32;;;;;;;3.42;100.00;97048.00;5050232;28;24443;-76
2022/02/09 06:43:33;;;;;;;8.23;5.30;;;;;;;3.38;100.00;97052.31;5050412;28;24460;-75
2022/02/09 06:45:59;;;;;;;10.30;6.38;;;;;;;3.37;100.00;97055.72;5050332;28;24441;-75
2022/02/09 06:48:28;;;;;;;9.18;5.90;;;;;;;3.43;100.00;97047.94;5053951;28;24812;-75
2022/02/09 06:50:57;;;;;;;9.43;5.33;;;;;;;3.47;100.00;97048.75;5070851;28;24471;-75
2022/02/09 06:53:32;;;;;;;6.72;4.70;;;;;;;3.48;100.00;97053.00;5070893;28;24423;-75
2022/02/09 06:56:00;;;;;;;5.53;4.55;;;;;;;3.46;100.00;97054.75;5059812;28;24439;-75
2022/02/09 06:58:58;;;;;;;7.13;5.15;;;;;;;3.49;100.00;97053.00;5050538;28;24427;-75
2022/02/09 07:01:25;;;;;;;7.90;4.80;;;;;;;3.47;100.00;97054.72;5049930;28;24439;-75
2022/02/09 07:03:51;;;;;;;8.55;6.15;;;;;;;3.31;100.00;97053.25;5050329;28;24454;-75
2022/02/09 07:06:18;;;;;;;8.45;7.18;;;;;;;3.22;100.00;97043.13;5050223;28;24423;-75
2022/02/09 07:08:44;;;;;;;6.70;4.40;;;;;;;3.20;100.00;97055.13;5049758;28;24514;-75
2022/02/09 07:11:11;;;;;;;8.67;3.83;;;;;;;3.16;100.00;97051.75;5050300;28;24524;-75
2022/02/09 07:13:39;;;;;;;9.37;3.40;;;;;;;3.15;100.00;97045.78;5050366;28;24509;-75
2022/02/09 07:16:06;;;;;;;6.72;3.80;;;;;;;3.04;100.00;97042.53;5057153;28;24863;-75
2022/02/09 07:18:32;;;;;;;6.32;3.78;;;;;;;3.09;100.00;97048.41;5065450;28;24423;-75
2022/02/09 07:21:04;;;;;;;10.55;4.53;;;;;;;3.10;100.00;97044.97;5050163;28;24469;-75
2022/02/09 07:23:35;;;;;;;7.07;4.10;;;;;;;3.08;100.00;97039.03;5060859;28;24504;-74
2022/02/09 07:26:06;;;;;;;6.75;4.25;;;;;;;3.14;100.00;97046.63;5070083;28;24504;-75
2022/02/09 07:28:34;;;;;;;8.07;3.90;;;;;;;3.17;100.00;97042.34;5070051;28;24446;-75
2022/02/09 07:31:03;;;;;;;8.73;3.93;;;;;;;3.25;100.00;97050.75;5063263;28;24465;-76
2022/02/09 07:33:30;;;;;;;8.52;4.00;;;;;;;3.17;100.00;97050.03;5050615;28;24557;-75
2022/02/09 07:35:56;;;;;;;5.03;3.57;;;;;;;3.35;100.00;97040.38;5049800;28;24426;-76
2022/02/09 07:38:23;;;;;;;6.85;3.60;;;;;;;3.31;100.00;97040.44;5049997;28;24419;-76
2022/02/09 07:40:52;;;;;;;7.60;4.40;;;;;;;3.33;100.00;97038.69;5065961;28;24522;-76
2022/02/09 07:43:22;;;;;;;7.20;4.07;;;;;;;3.39;100.00;97041.19;5069996;28;24419;-76
2022/02/09 07:46:16;;;;;;;5.10;3.30;;;;;;;3.51;100.00;97035.03;5069355;28;24996;-75
2022/02/09 07:48:56;;;;;;;6.50;3.28;;;;;;;3.73;100.00;97040.69;5069427;28;24516;-75
2022/02/09 07:51:52;;;;;;;6.85;3.55;;;;;;;3.82;100.00;97038.84;5069851;28;25005;-76
2022/02/09 07:54:20;;;;;;;10.40;5.07;;;;;;;3.76;100.00;97041.47;5069950;28;24419;-75
2022/02/09 07:56:47;;;;;;;15.10;4.13;;;;;;;3.81;100.00;97038.84;5068947;28;24435;-75
2022/02/09 07:59:15;;;;;;;13.90;7.40;;;;;;;3.74;100.00;97032.97;5070037;28;24454;-75
2022/02/09 08:01:42;;;;;;;9.85;5.00;;;;;;;4.19;100.00;97022.84;5069340;28;24488;-75
2022/02/09 08:04:10;;;;;;;6.05;3.85;;;;;;;4.14;100.00;97024.63;5069789;28;24529;-75
2022/02/09 08:06:38;;;;;;;5.03;3.40;;;;;;;4.26;100.00;97018.44;5069445;28;24419;-75
2022/02/09 08:09:12;;;;;;;8.50;5.20;;;;;;;4.29;100.00;97014.09;5062166;28;25056;-75
2022/02/09 08:11:45;;;;;;;8.00;4.82;;;;;;;4.28;100.00;97009.84;5049681;28;24994;-76
2022/02/09 08:28:44;;;;;;;10.20;4.25;;;;;;;4.46;100.00;97000.97;5052379;28;25043;-76
2022/02/09 08:31:44;;;;;;;9.80;5.22;;;;;;;4.48;100.00;97000.91;5063691;28;24525;-76
2022/02/09 08:34:11;;;;;;;5.28;3.40;;;;;;;4.46;100.00;96989.88;5072533;28;24426;-76
2022/02/09 08:36:38;;;;;;;6.97;3.70;;;;;;;4.33;100.00;96992.63;5072783;28;24421;-76
2022/02/09 08:39:06;;;;;;;9.50;3.72;;;;;;;4.60;100.00;96990.44;5072499;28;24431;-75
2022/02/09 08:41:33;;;;;;;9.85;3.67;;;;;;;4.70;100.00;96993.66;5072673;28;24421;-75
2022/02/09 08:44:00;;;;;;;6.13;3.35;;;;;;;4.80;100.00;96990.03;5072742;28;24423;-75
2022/02/09 08:46:26;;;;;;;5.80;3.10;;;;;;;4.70;100.00;96985.94;5072061;28;24427;-75
2022/02/09 08:48:53;;;;;;;5.97;3.53;;;;;;;4.73;100.00;96986.75;5071956;28;24804;-75
2022/02/09 08:51:22;;;;;;;5.35;2.92;;;;;;;4.77;100.00;96990.94;5072809;28;24448;-75
2022/02/09 08:53:50;;;;;;;7.20;3.42;;;;;;;4.99;100.00;96987.94;5071853;28;24504;-75
2022/02/09 08:56:16;;;;;;;6.00;3.10;;;;;;;5.06;100.00;96987.75;5072728;28;24987;-76
2022/02/09 08:58:44;;;;;;;6.45;3.00;;;;;;;5.40;100.00;96987.00;5072697;28;24780;-76
2022/02/09 09:01:12;;;;;;;7.35;2.78;;;;;;;5.43;100.00;96981.81;5072065;28;24463;-76
2022/02/09 09:03:47;;;;;;;5.63;2.70;;;;;;;5.79;100.00;96980.09;5072611;28;24575;-75
2022/02/09 09:06:18;;;;;;;6.65;3.40;;;;;;;5.89;100.00;96972.13;5072172;28;24512;-75
2022/02/09 09:08:58;;;;;;;4.78;3.13;;;;;;;5.94;100.00;96962.63;5071865;28;24443;-76
2022/02/09 09:11:58;;;;;;;6.80;3.58;;;;;;;5.78;100.00;96968.13;5072698;28;24789;-75
2022/02/09 09:58:19;;;;;;;10.20;2.60;;;;;;;9.20;95.80;96960.00;5070837;28;20764;-74
2022/02/09 10:04:02;;;;;;;9.40;2.92;;;;;;;8.46;97.44;96960.13;5028535;28;20658;-75
2022/02/09 10:34:19;;;;;;;5.68;2.47;;;;;;;9.21;94.95;96941.00;5056892;28;20629;-75
2022/02/09 10:36:49;;;;;;;8.13;2.38;;;;;;;9.76;92.98;96932.81;5066700;28;20710;-75
2022/02/09 10:39:20;;;;;;;5.45;2.30;;;;;;;9.83;91.75;96932.50;5070475;28;20783;-75
2022/02/09 10:41:53;;;;;;;4.85;2.38;;;;;;;9.76;91.61;96925.03;5072313;28;20777;-75
2022/02/09 10:44:23;;;;;;;4.77;2.30;;;;;;;10.01;90.44;96917.94;5070636;28;21239;-75
2022/02/09 10:46:52;;;;;;;8.85;2.17;;;;;;;9.93;90.49;96912.22;5069802;28;20718;-75
2022/02/09 10:49:23;;;;;;;5.15;2.40;;;;;;;10.32;88.65;96917.50;5079848;28;20777;-75
2022/02/09 10:51:53;;;;;;;7.32;2.30;;;;;;;10.17;87.26;96906.03;5110155;28;24440;-75
2022/02/09 10:54:23;;;;;;;3.97;2.05;;;;;;;10.39;89.25;96900.78;5108573;27;25006;-75
2022/02/09 10:56:52;;;;;;;4.63;2.25;;;;;;;10.25;87.09;96897.09;5110137;28;21350;-75
2022/02/09 10:59:21;;;;;;;5.35;2.65;;;;;;;10.24;88.74;96901.44;5110314;28;24985;-75
2022/02/09 11:01:48;;;;;;;6.80;2.03;;;;;;;10.51;86.60;96890.78;5109734;28;24470;-75
2022/02/09 11:04:14;;;;;;;5.18;1.88;;;;;;;10.97;86.05;96888.69;5110309;28;24429;-74
2022/02/09 11:06:43;;;;;;;12.30;2.40;;;;;;;10.94;86.04;96888.81;5110382;28;24890;-74
2022/02/09 11:09:12;;;;;;;5.38;1.67;;;;;;;11.36;87.16;96886.81;5112530;28;20833;-74
2022/02/09 11:11:41;;;;;;;9.25;2.10;;;;;;;11.02;85.98;96892.75;5110727;28;24417;-74
2022/02/09 11:14:10;;;;;;;4.78;2.42;;;;;;;10.56;86.74;96883.66;5111012;28;24441;-75
2022/02/09 11:16:37;;;;;;;4.18;2.08;;;;;;;10.80;87.66;96872.19;5111829;28;24421;-75
2022/02/09 11:19:04;;;;;;;4.93;2.13;;;;;;;10.95;85.53;96880.16;5111716;28;24441;-75
2022/02/09 11:21:34;;;;;;;5.45;1.85;;;;;;;10.88;86.09;96870.06;5110276;28;24544;-74
2022/02/09 11:24:15;;;;;;;5.03;2.40;;;;;;;10.16;87.93;96880.22;5107423;28;24426;-74
2022/02/09 11:26:49;;;;;;;4.65;1.75;;;;;;;10.16;88.58;96872.44;5089590;28;24437;-74
2022/02/09 11:29:23;;;;;;;3.25;2.08;;;;;;;10.10;90.73;96865.78;5089897;28;24438;-75
2022/02/09 11:32:13;;;;;;;3.13;1.63;;;;;;;10.00;90.11;96866.22;5103168;28;24426;-75
2022/02/09 11:35:27;;;;;;;3.95;1.92;;;;;;;10.13;88.83;96865.66;5110460;28;24428;-75
2022/02/09 11:38:09;;;;;;;5.35;2.22;;;;;;;10.15;90.33;96862.97;5110560;28;20764;-74
2022/02/09 11:40:44;;;;;;;3.90;2.70;;;;;;;9.98;89.83;96857.72;5110011;28;24430;-75
2022/02/09 11:43:40;;;;;;;6.22;3.30;;;;;;;9.85;93.96;96854.78;5110368;28;25015;-75
2022/02/09 11:46:35;;;;;;;4.70;2.38;;;;;;;10.08;93.39;96849.44;5110379;28;20740;-75
2022/02/09 11:52:03;;;;;;;3.75;1.98;;;;;;;9.96;93.67;96844.81;5100624;28;24437;-75
2022/02/09 11:58:20;;;;;;;4.03;1.80;;;;;;;10.04;92.05;96836.72;5089164;28;24479;-75
2022/02/09 12:01:05;;;;;;;4.13;2.28;;;;;;;9.93;92.36;96830.25;5115653;27;24421;-75
2022/02/09 12:10:23;;;;;;;4.30;2.20;;;;;;;10.53;92.83;96819.88;5113647;28;24448;-75
2022/02/09 12:13:03;;;;;;;4.88;2.05;;;;;;;10.72;90.45;96825.06;5113619;28;24479;-75
2022/02/09 12:18:55;;;;;;;4.32;2.30;;;;;;;10.16;93.05;96812.91;5113259;28;24467;-75
2022/02/09 12:21:37;;;;;;;3.87;1.97;;;;;;;10.01;92.61;96813.56;5113728;28;24783;-75
2022/02/09 12:24:17;;;;;;;7.50;3.90;;;;;;;10.09;93.03;96811.50;5113958;28;24450;-75
2022/02/09 12:26:58;;;;;;;7.40;2.60;;;;;;;10.26;93.99;96803.81;5092837;28;24954;-75
2022/02/09 12:29:32;;;;;;;3.45;1.63;;;;;;;10.56;92.16;96801.59;5093352;28;24429;-74
2022/02/09 12:31:59;;;;;;;3.45;1.90;;;;;;;10.42;90.91;96791.03;5107128;28;24491;-75
2022/02/09 12:34:28;;;;;;;4.82;1.73;;;;;;;10.23;90.81;96792.75;5116558;27;24445;-75
2022/02/09 12:36:55;;;;;;;3.40;1.80;;;;;;;10.16;92.30;96795.63;5100186;28;24438;-75
2022/02/09 12:39:23;;;;;;;3.67;1.70;;;;;;;10.36;93.06;96797.34;5110028;28;24989;-75
2022/02/09 12:41:53;;;;;;;3.05;1.60;;;;;;;10.88;94.02;96787.13;5113050;28;24490;-75
2022/02/09 12:44:23;;;;;;;2.40;1.42;;;;;;;10.88;90.04;96787.13;5112523;27;24445;-75
2022/02/09 12:46:51;;;;;;;3.28;1.77;;;;;;;10.63;89.79;96784.84;5114256;27;24432;-75
2022/02/09 12:49:19;;;;;;;3.55;1.50;;;;;;;10.44;90.83;96783.19;5111805;28;24476;-74
2022/02/09 12:51:50;;;;;;;6.73;1.83;;;;;;;10.46;95.61;96773.63;5112408;28;24850;-75
2022/02/09 12:54:18;;;;;;;4.72;1.65;;;;;;;10.79;91.39;96774.63;5112389;28;24476;-75
2022/02/09 12:56:48;;;;;;;3.15;1.30;;;;;;;11.27;89.76;96762.78;5113579;27;24516;-74
2022/02/09 12:59:16;;;;;;;2.22;1.40;;;;;;;11.32;88.71;96760.78;5112825;28;24421;-75
2022/02/09 13:01:47;;;;;;;2.83;1.20;;;;;;;11.13;89.04;96750.50;5114677;27;24426;-75
2022/02/09 13:04:33;;;;;;;3.63;1.70;;;;;;;11.09;85.99;96753.31;5112962;28;24424;-74
2022/02/09 13:07:00;;;;;;;1.85;1.20;;;;;;;10.89;88.87;96759.47;5112245;28;24418;-75
2022/02/09 13:09:27;;;;;;;2.03;1.20;;;;;;;10.90;88.60;96743.84;5114091;27;24430;-75
2022/02/09 13:11:54;;;;;;;4.30;1.40;;;;;;;10.81;87.21;96749.47;5112658;28;24476;-74
2022/02/09 13:14:29;;;;;;;2.65;1.55;;;;;;;10.71;89.16;96740.44;5112794;28;24432;-74
2022/02/09 13:17:10;;;;;;;3.05;1.80;;;;;;;10.75;89.04;96736.78;5113913;27;24967;-74
2022/02/09 13:20:16;;;;;;;2.58;1.10;;;;;;;10.83;89.21;96739.03;5125546;27;24527;-75
2022/02/09 13:52:27;;;;;;;1.88;0.95;;;;;;;11.77;84.59;96698.84;5130165;27;24462;-74
2022/02/09 14:12:11;;;;;;;2.40;1.45;;;;;;;12.22;86.27;96692.97;5109165;28;24492;-75
2022/02/09 14:15:02;;;;;;;3.90;1.40;;;;;;;12.33;85.63;96688.03;5110475;28;24441;-75
2022/02/09 14:18:04;;;;;;;2.10;1.17;;;;;;;12.18;86.22;96688.03;5095087;27;24507;-75
2022/02/09 14:23:57;;;;;;;3.92;1.17;;;;;;;12.16;88.20;96682.91;5107843;27;24498;-74
2022/02/09 14:35:05;;;;;;;1.90;1.10;;;;;;;11.97;85.24;96683.06;5092941;28;24482;-75
2022/02/09 14:49:21;;;;;;;3.20;1.10;;;;;;;11.74;86.55;96683.44;5108352;28;24480;-74
2022/02/09 14:54:27;;;;;;;1.83;1.25;;;;;;;11.72;84.21;96678.34;5091771;28;24416;-74
2022/02/09 14:56:59;;;;;;;1.70;0.93;;;;;;;11.45;87.22;96687.53;5110072;28;24430;-75
2022/02/09 14:59:35;;;;;;;3.38;1.23;;;;;;;11.42;88.62;96680.78;5109217;28;24537;-74
2022/02/09 15:02:08;;;;;;;3.53;1.38;;;;;;;11.40;88.14;96677.41;5099610;27;24434;-74
2022/02/09 15:04:51;;;;;;;2.40;1.08;;;;;;;11.63;91.01;96674.44;5110032;28;24540;-75
2022/02/09 15:07:30;;;;;;;1.48;1.10;;;;;;;11.68;86.91;96676.81;5110173;28;24424;-75
2022/02/09 15:10:04;;;;;;;2.97;0.85;;;;;;;11.52;87.44;96674.16;5112729;28;24985;-74
2022/02/09 15:12:42;;;;;;;2.90;0.80;;;;;;;11.71;85.43;96670.59;5110981;28;24440;-75
2022/02/09 15:15:24;;;;;;;4.45;1.20;;;;;;;11.69;89.40;96668.09;5110479;28;24436;-74
2022/02/09 15:18:34;;;;;;;3.72;1.30;;;;;;;11.45;86.69;96669.38;5108329;28;24430;-75
2022/02/09 15:21:11;;;;;;;1.85;1.15;;;;;;;11.47;89.35;96670.97;5113212;28;24414;-76
2022/02/09 15:23:36;;;;;;;2.55;1.27;;;;;;;11.17;90.77;96668.22;5112750;28;24448;-75
2022/02/09 15:26:05;;;;;;;1.48;1.00;;;;;;;11.23;88.93;96662.69;5114144;28;24954;-75
2022/02/09 15:28:32;;;;;;;2.08;1.20;;;;;;;11.09;90.37;96676.38;5114561;28;24430;-74
2022/02/09 15:31:06;;;;;;;3.40;1.40;;;;;;;10.96;90.80;96670.13;5114699;27;25062;-75
2022/02/09 15:33:39;;;;;;;2.43;1.37;;;;;;;10.80;91.30;96664.88;5114430;28;21385;-74
2022/02/09 15:36:10;;;;;;;1.70;1.10;;;;;;;11.19;89.86;96666.38;5114082;28;25022;-74
2022/02/09 15:38:45;;;;;;;2.83;1.20;;;;;;;11.14;88.98;96663.19;5108037;27;25045;-74
2022/02/09 15:41:17;;;;;;;2.30;1.30;;;;;;;10.81;91.01;96663.13;5112039;27;25008;-74
2022/02/09 15:57:49;;;;;;;5.07;1.53;;;;;;;10.30;96.37;96665.56;5110363;28;24428;-74
2022/02/09 16:05:51;;;;;;;4.32;1.70;;;;;;;10.19;96.09;96667.78;5093581;28;21490;-74
2022/02/09 16:08:59;;;;;;;2.90;1.50;;;;;;;10.14;96.43;96668.00;5093067;28;24846;-74
2022/02/09 16:16:23;;;;;;;2.88;1.58;;;;;;;10.08;96.64;96665.69;5112234;27;24529;-74
2022/02/09 16:17:37;;;;;;;3.10;1.58;;;;;;;10.35;94.25;96663.59;5110113;28;24541;-75
2022/02/09 16:20:36;;;;;;;3.65;1.65;;;;;;;9.98;97.82;96669.63;5116348;27;24438;-74
2022/02/09 16:22:56;;;;;;;5.68;1.58;;;;;;;9.82;98.43;96666.88;5112667;28;24449;-74
2022/02/09 16:25:34;;;;;;;3.80;1.60;;;;;;;9.76;98.78;96674.09;5113668;28;24417;-75
2022/02/09 16:33:51;;;;;;;5.43;2.70;;;;;;;9.25;100.00;96667.72;5113207;28;20719;-74
2022/02/09 16:44:16;;;;;;;4.50;2.03;;;;;;;9.02;100.00;96676.47;5113085;28;20722;-74
2022/02/09 16:44:38;;;;;;;3.80;1.80;;;;;;;8.90;100.00;96670.91;5134152;27;20783;-74
2022/02/09 16:47:09;;;;;;;2.58;1.50;;;;;;;8.86;100.00;96673.66;5102487;27;20725;-74
2022/02/09 16:49:44;;;;;;;2.72;1.63;;;;;;;8.81;100.00;96668.69;5107121;27;20682;-74
2022/02/09 16:52:15;;;;;;;6.25;1.40;;;;;;;8.75;100.00;96668.09;5092631;28;20699;-74
2022/02/09 16:54:51;;;;;;;3.20;1.90;;;;;;;8.69;100.00;96675.22;5092539;28;21326;-74
2022/02/09 17:15:31;;;;;;;2.88;2.03;;;;;;;7.99;100.00;96685.69;5109791;27;24456;-74
2022/02/09 17:19:43;;;;;;;4.72;3.20;;;;;;;7.64;100.00;96685.28;5077803;27;24417;-74
2022/02/09 17:22:11;;;;;;;4.93;2.83;;;;;;;7.60;100.00;96681.13;5111913;28;24437;-74
2022/02/09 17:24:38;;;;;;;5.50;3.08;;;;;;;7.47;100.00;96682.47;5111140;28;25027;-74
2022/02/09 17:27:10;;;;;;;5.13;3.67;;;;;;;7.38;100.00;96686.22;5111712;28;24508;-74
2022/02/09 17:29:52;;;;;;;8.00;4.82;;;;;;;7.29;100.00;96681.38;5113050;27;24506;-74
2022/02/09 17:32:29;;;;;;;7.10;4.95;;;;;;;7.25;100.00;96688.38;5110168;28;24453;-74
2022/02/09 17:35:02;;;;;;;10.25;6.40;;;;;;;7.12;100.00;96688.84;5111908;28;24436;-75
2022/02/09 17:37:47;;;;;;;10.93;5.47;;;;;;;7.01;100.00;96686.66;5110430;28;24429;-75
2022/02/09 17:53:59;;;;;;;4.15;2.50;;;;;;;6.65;100.00;96683.56;5109877;28;24491;-75
2022/02/09 17:56:28;;;;;;;3.70;2.80;;;;;;;6.49;100.00;96689.22;5102712;28;24483;-75
2022/02/09 17:59:00;;;;;;;4.82;3.65;;;;;;;6.47;100.00;96685.00;5127071;27;24964;-75
2022/02/09 18:01:26;;;;;;;5.38;2.72;;;;;;;6.38;100.00;96686.16;5120686;27;24434;-75
2022/02/09 18:03:54;;;;;;;5.57;2.53;;;;;;;6.36;100.00;96675.03;5112019;28;24432;-75
2022/02/09 18:06:25;;;;;;;7.22;3.90;;;;;;;6.18;100.00;96676.47;5111473;28;24425;-75
2022/02/09 18:08:58;;;;;;;6.80;3.72;;;;;;;6.12;100.00;96683.50;5111667;28;24969;-76
2022/02/09 18:11:37;;;;;;;6.32;3.20;;;;;;;6.20;100.00;96681.56;5116281;27;24479;-75
2022/02/09 18:30:55;;;;;;;6.45;3.17;;;;;;;5.56;100.00;96682.56;5100852;27;24445;-75
2022/02/09 18:33:38;;;;;;;6.57;2.60;;;;;;;5.51;100.00;96689.53;5111121;28;24440;-75
2022/02/09 18:42:36;;;;;;;14.73;10.02;;;;;;;5.54;100.00;96674.03;5098407;27;24429;-75
2022/02/09 18:44:50;;;;;;;11.13;4.28;;;;;;;5.44;100.00;96684.63;5090324;28;24521;-76
2022/02/09 18:59:22;;;;;;;10.07;5.88;;;;;;;4.93;100.00;96665.47;5110639;28;24846;-76
2022/02/09 19:04:25;;;;;;;17.13;9.90;;;;;;;4.89;100.00;96666.41;5111342;28;24459;-75
2022/02/09 19:07:12;;;;;;;14.63;7.63;;;;;;;4.96;100.00;96660.22;5110528;28;24802;-75
2022/02/09 19:15:31;;;;;;;10.00;4.78;;;;;;;4.77;100.00;96659.03;5110467;28;24486;-75
2022/02/09 19:18:09;;;;;;;10.27;4.82;;;;;;;4.67;100.00;96658.41;5090035;28;24779;-75
2022/02/09 19:20:55;;;;;;;13.50;7.15;;;;;;;4.54;100.00;96660.44;5090963;28;24517;-75
2022/02/09 19:26:27;;;;;;;11.13;7.78;;;;;;;4.49;100.00;96653.75;5070761;28;24433;-74
2022/02/09 19:29:22;;;;;;;17.27;8.27;;;;;;;4.54;100.00;96655.31;5110450;28;24445;-75